createdAt,value
2023-02-16T00:00:32.541Z,14.05
2023-02-16T00:03:00.535Z,13.70
2023-02-16T00:05:34.040Z,15.43
2023-02-16T00:08:02.773Z,13.32
2023-02-16T00:10:33.818Z,13.93
2023-02-16T00:13:21.462Z,14.10
2023-02-16T00:15:52.385Z,13.98
2023-02-16T00:18:21.704Z,13.75
2023-02-16T00:20:50.019Z,13.55
2023-02-16T00:23:17.874Z,13.65
2023-02-16T00:25:45.732Z,14.30
2023-02-16T00:28:18.209Z,14.38
2023-02-16T00:30:46.862Z,14.25
2023-02-16T00:33:19.184Z,13.02
2023-02-16T00:35:47.586Z,13.05
2023-02-16T00:38:17.269Z,13.70
2023-02-16T00:40:45.321Z,14.32
2023-02-16T00:43:29.369Z,13.48
2023-02-16T00:45:57.841Z,14.45
2023-02-16T00:48:25.948Z,14.23
2023-02-16T00:50:54.679Z,14.05
2023-02-16T00:53:22.771Z,14.40
2023-02-16T00:55:50.593Z,14.13
2023-02-16T00:58:26.673Z,14.35
2023-02-16T01:01:10.427Z,14.23
2023-02-16T01:03:38.817Z,13.32
2023-02-16T01:06:26.592Z,14.63
2023-02-16T01:11:42.292Z,13.55
2023-02-16T01:14:15.155Z,15.38
2023-02-16T01:16:43.703Z,15.18
2023-02-16T01:19:12.857Z,14.23
2023-02-16T01:21:40.721Z,14.95
2023-02-16T01:24:11.512Z,14.05
2023-02-16T01:26:42.664Z,15.05
2023-02-16T01:29:20.415Z,13.30
2023-02-16T01:31:51.075Z,12.27
2023-02-16T01:34:19.947Z,12.95
2023-02-16T01:36:49.022Z,13.23
2023-02-16T01:39:19.211Z,13.15
2023-02-16T01:42:15.541Z,13.82
2023-02-16T01:45:01.277Z,14.65
2023-02-16T01:47:51.348Z,14.10
2023-02-16T01:50:25.202Z,13.95
2023-02-16T01:53:12.382Z,13.80
2023-02-16T01:55:44.683Z,14.45
2023-02-16T01:58:21.502Z,15.43
2023-02-16T02:00:49.440Z,14.48
2023-02-16T02:03:39.766Z,14.75
2023-02-16T02:06:14.140Z,13.57
2023-02-16T02:08:54.159Z,14.98
2023-02-16T02:11:48.232Z,13.88
2023-02-16T02:14:41.467Z,13.18
2023-02-16T02:17:14.303Z,13.18
2023-02-16T02:20:15.571Z,14.90
2023-02-16T02:23:31.731Z,13.88
2023-02-16T02:26:18.551Z,14.82
2023-02-16T02:28:49.040Z,14.55
2023-02-16T02:31:26.613Z,15.40
2023-02-16T02:34:18.051Z,13.70
2023-02-16T02:37:16.544Z,13.35
2023-02-16T02:42:37.876Z,13.70
2023-02-16T02:45:25.438Z,15.32
2023-02-16T02:47:54.318Z,13.73
2023-02-16T02:50:41.365Z,13.52
2023-02-16T02:53:15.415Z,12.87
2023-02-16T02:56:06.042Z,12.73
2023-02-16T02:59:11.706Z,12.73
2023-02-16T03:01:47.127Z,13.13
2023-02-16T03:04:20.002Z,12.73
2023-02-16T03:06:52.547Z,12.75
2023-02-16T03:09:21.265Z,12.50
2023-02-16T03:12:09.616Z,12.88
2023-02-16T03:14:55.282Z,12.90
2023-02-16T03:17:49.488Z,13.40
2023-02-16T03:20:39.354Z,13.68
2023-02-16T03:23:27.803Z,13.48
2023-02-16T03:26:14.811Z,12.25
2023-02-16T03:29:03.505Z,12.75
2023-02-16T03:31:36.114Z,13.23
2023-02-16T03:34:04.961Z,13.40
2023-02-16T03:36:36.834Z,14.18
2023-02-16T03:39:07.092Z,12.90
2023-02-16T03:41:40.495Z,12.27
2023-02-16T03:44:08.485Z,12.70
2023-02-16T03:46:36.681Z,13.52
2023-02-16T03:49:04.497Z,13.65
2023-02-16T03:51:32.534Z,13.60
2023-02-16T03:54:01.096Z,13.75
2023-02-16T03:56:28.976Z,13.70
2023-02-16T03:58:56.882Z,13.73
2023-02-16T04:01:26.250Z,13.35
2023-02-16T04:03:54.215Z,14.27
2023-02-16T04:06:24.483Z,15.43
2023-02-16T04:08:52.342Z,14.57
2023-02-16T04:11:42.058Z,15.85
2023-02-16T04:14:09.835Z,15.05
2023-02-16T04:16:39.054Z,16.08
2023-02-16T04:19:07.993Z,17.45
2023-02-16T04:21:35.948Z,15.63
2023-02-16T04:24:05.961Z,16.10
2023-02-16T04:26:33.937Z,15.35
2023-02-16T04:29:01.777Z,15.65
2023-02-16T04:31:29.688Z,15.27
2023-02-16T04:33:57.679Z,15.05
2023-02-16T04:36:25.511Z,14.55
2023-02-16T04:38:53.552Z,15.07
2023-02-16T04:41:21.283Z,15.10
2023-02-16T04:43:48.985Z,15.48
2023-02-16T04:46:16.935Z,14.98
2023-02-16T04:48:45.030Z,15.35
2023-02-16T04:51:12.913Z,14.70
2023-02-16T04:53:40.736Z,14.48
2023-02-16T04:56:12.797Z,14.10
2023-02-16T04:58:40.810Z,15.00
2023-02-16T05:01:09.081Z,15.35
2023-02-16T05:03:37.402Z,14.00
2023-02-16T05:06:05.342Z,15.75
2023-02-16T05:08:33.288Z,16.13
2023-02-16T05:11:19.522Z,16.48
2023-02-16T05:14:05.606Z,14.63
2023-02-16T05:16:33.491Z,14.43
2023-02-16T05:19:01.554Z,14.38
2023-02-16T05:21:32.082Z,15.00
2023-02-16T05:24:02.707Z,15.30
2023-02-16T05:26:31.473Z,14.85
2023-02-16T05:28:59.587Z,14.40
2023-02-16T05:31:29.730Z,15.50
2023-02-16T05:33:58.076Z,16.55
2023-02-16T05:36:25.854Z,17.02
2023-02-16T05:38:53.722Z,16.48
2023-02-16T05:41:24.287Z,17.50
2023-02-16T05:43:58.246Z,16.55
2023-02-16T05:46:28.217Z,16.45
2023-02-16T05:48:56.547Z,17.73
2023-02-16T05:51:24.375Z,17.35
2023-02-16T05:53:54.376Z,18.08
2023-02-16T05:56:22.296Z,20.23
2023-02-16T05:58:50.430Z,18.83
2023-02-16T06:01:18.785Z,18.83
2023-02-16T06:03:47.602Z,17.75
2023-02-16T06:06:16.733Z,17.83
2023-02-16T06:08:44.767Z,15.95
2023-02-16T06:11:31.521Z,17.67
2023-02-16T06:13:59.959Z,17.33
2023-02-16T06:16:30.854Z,16.75
2023-02-16T06:19:00.354Z,16.45
2023-02-16T06:21:29.108Z,16.08
2023-02-16T06:23:57.956Z,15.00
2023-02-16T06:26:27.492Z,15.43
2023-02-16T06:28:55.895Z,17.38
2023-02-16T06:31:25.490Z,16.85
2023-02-16T06:33:57.108Z,14.90
2023-02-16T06:36:25.506Z,15.00
2023-02-16T06:38:53.495Z,14.43
2023-02-16T06:41:38.056Z,14.82
2023-02-16T06:44:14.785Z,13.68
2023-02-16T06:46:44.892Z,14.50
2023-02-16T06:49:15.902Z,13.23
2023-02-16T06:51:44.116Z,13.90
2023-02-16T06:54:13.723Z,12.98
2023-02-16T06:56:41.934Z,13.02
2023-02-16T06:59:12.211Z,13.63
2023-02-16T07:01:40.224Z,13.02
2023-02-16T07:04:09.202Z,11.85
2023-02-16T07:06:36.989Z,11.40
2023-02-16T07:09:04.840Z,12.45
2023-02-16T07:11:33.340Z,11.90
2023-02-16T07:14:01.074Z,11.95
2023-02-16T07:16:29.902Z,12.00
2023-02-16T07:18:57.740Z,12.88
2023-02-16T07:21:25.692Z,12.80
2023-02-16T07:23:53.513Z,12.85
2023-02-16T07:26:21.440Z,13.60
2023-02-16T07:28:49.209Z,13.82
2023-02-16T07:31:17.546Z,12.88
2023-02-16T07:33:46.559Z,14.95
2023-02-16T07:36:14.814Z,13.57
2023-02-16T07:38:42.584Z,14.13
2023-02-16T07:41:11.581Z,14.15
2023-02-16T07:43:39.804Z,14.13
2023-02-16T07:46:07.528Z,14.82
2023-02-16T07:48:35.839Z,14.38
2023-02-16T07:51:04.394Z,14.80
2023-02-16T07:53:32.575Z,15.05
2023-02-16T07:56:00.624Z,14.02
2023-02-16T07:58:29.303Z,14.95
2023-02-16T08:01:16.035Z,14.70
2023-02-16T08:03:44.466Z,15.20
2023-02-16T08:06:12.568Z,13.52
2023-02-16T08:08:40.948Z,13.25
2023-02-16T08:11:14.670Z,14.07
2023-02-16T08:13:43.260Z,13.55
2023-02-16T08:16:19.672Z,12.65
2023-02-16T08:18:48.072Z,13.40
2023-02-16T08:21:19.267Z,13.32
2023-02-16T08:23:59.805Z,13.35
2023-02-16T08:26:34.567Z,12.40
2023-02-16T08:29:03.097Z,12.43
2023-02-16T08:31:32.209Z,13.38
2023-02-16T08:34:02.219Z,12.75
2023-02-16T08:36:35.519Z,13.60
2023-02-16T08:39:07.042Z,13.57
2023-02-16T08:41:37.175Z,12.40
2023-02-16T08:44:07.095Z,12.48
2023-02-16T08:46:37.405Z,12.52
2023-02-16T08:49:08.470Z,12.10
2023-02-16T08:51:45.671Z,12.50
2023-02-16T08:56:49.741Z,11.90
2023-02-16T08:59:19.163Z,12.23
2023-02-16T09:01:47.834Z,11.05
2023-02-16T09:04:17.874Z,12.23
2023-02-16T09:06:48.799Z,11.82
2023-02-16T09:09:18.272Z,11.40
2023-02-16T09:11:46.378Z,11.75
2023-02-16T09:14:17.507Z,11.98
2023-02-16T09:16:46.133Z,11.95
2023-02-16T09:19:20.707Z,12.35
2023-02-16T09:21:56.470Z,12.48
2023-02-16T09:24:24.585Z,13.88
2023-02-16T09:26:53.981Z,13.73
2023-02-16T09:29:21.928Z,13.95
2023-02-16T09:31:49.854Z,14.68
2023-02-16T09:34:20.579Z,14.00
2023-02-16T09:36:49.118Z,14.73
2023-02-16T09:39:19.425Z,15.02
2023-02-16T09:42:19.598Z,13.65
2023-02-16T09:45:09.941Z,14.50
2023-02-16T09:47:43.135Z,14.77
2023-02-16T09:50:50.267Z,13.88
2023-02-16T09:53:24.617Z,14.15
2023-02-16T09:56:03.519Z,13.48
2023-02-16T09:58:42.183Z,13.38
2023-02-16T10:01:32.261Z,13.60
2023-02-16T10:04:45.213Z,12.85
2023-02-16T10:07:47.895Z,12.40
2023-02-16T10:10:21.672Z,12.43
2023-02-16T10:13:00.280Z,12.40
2023-02-16T10:15:30.757Z,13.38
2023-02-16T10:18:08.861Z,13.57
2023-02-16T10:20:44.185Z,13.63
2023-02-16T10:23:43.856Z,16.13
2023-02-16T10:27:03.040Z,16.27
2023-02-16T10:29:31.172Z,15.30
2023-02-16T10:32:23.010Z,14.93
2023-02-16T10:35:05.083Z,13.98
2023-02-16T10:37:56.387Z,15.48
2023-02-16T10:40:36.892Z,18.45
2023-02-16T10:43:07.426Z,17.35
2023-02-16T10:45:52.374Z,16.83
2023-02-16T10:48:23.946Z,16.05
2023-02-16T10:51:03.699Z,14.25
2023-02-16T10:53:35.134Z,14.98
2023-02-16T10:56:24.341Z,12.13
2023-02-16T10:58:58.104Z,12.30
2023-02-16T11:01:44.740Z,12.57
2023-02-16T11:04:33.141Z,12.60
2023-02-16T11:07:13.415Z,11.95
2023-02-16T11:09:44.541Z,14.40
2023-02-16T11:12:23.725Z,17.80
2023-02-16T11:14:55.369Z,18.15
2023-02-16T11:17:24.538Z,15.52
2023-02-16T11:20:02.341Z,14.73
2023-02-16T11:22:37.184Z,14.63
2023-02-16T11:25:26.464Z,13.55
2023-02-16T11:28:07.518Z,13.57
2023-02-16T11:30:43.605Z,12.65
2023-02-16T11:33:24.438Z,14.40
2023-02-16T11:35:52.585Z,13.88
2023-02-16T11:38:39.227Z,14.10
2023-02-16T11:41:07.562Z,13.98
2023-02-16T11:43:38.983Z,16.40
2023-02-16T11:46:20.772Z,22.00
2023-02-16T11:48:48.976Z,23.55
2023-02-16T11:51:30.597Z,25.17
2023-02-16T11:54:05.806Z,22.65
2023-02-16T11:56:37.140Z,22.50
2023-02-16T11:59:07.872Z,19.95
2023-02-16T12:02:11.584Z,18.65
2023-02-16T12:04:53.764Z,16.73
2023-02-16T12:07:47.069Z,15.52
2023-02-16T12:10:33.457Z,16.52
2023-02-16T12:13:18.237Z,16.65
2023-02-16T12:15:53.829Z,16.73
2023-02-16T12:18:21.739Z,17.48
2023-02-16T12:21:17.350Z,17.27
2023-02-16T12:24:03.942Z,17.23
2023-02-16T12:26:41.724Z,17.67
2023-02-16T12:29:31.877Z,15.48
2023-02-16T12:32:12.018Z,16.02
2023-02-16T12:34:52.115Z,15.77
2023-02-16T12:37:44.300Z,15.90
2023-02-16T12:40:33.356Z,15.45
2023-02-16T12:43:19.821Z,31.02
2023-02-16T12:45:49.897Z,88.53
2023-02-16T12:48:43.335Z,141.82
2023-02-16T12:51:21.518Z,121.22
2023-02-16T12:53:52.382Z,84.40
2023-02-16T12:56:27.237Z,54.75
2023-02-16T12:59:05.846Z,39.75
2023-02-16T13:01:36.958Z,31.90
2023-02-16T13:04:36.406Z,25.80
2023-02-16T13:07:19.942Z,20.63
2023-02-16T13:10:03.604Z,19.83
2023-02-16T13:12:57.005Z,18.73
2023-02-16T13:16:00.315Z,17.60
2023-02-16T13:18:38.743Z,15.57
2023-02-16T13:21:18.259Z,14.98
2023-02-16T13:24:15.883Z,14.27
2023-02-16T13:27:24.249Z,15.60
2023-02-16T13:30:13.674Z,14.52
2023-02-16T13:33:07.402Z,13.90
2023-02-16T13:36:10.091Z,16.83
2023-02-16T13:38:59.204Z,15.55
2023-02-16T13:41:41.111Z,16.27
2023-02-16T13:44:26.539Z,14.13
2023-02-16T13:46:55.052Z,13.57
2023-02-16T13:49:29.159Z,16.35
2023-02-16T13:51:59.775Z,17.17
2023-02-16T13:54:34.782Z,16.38
2023-02-16T13:57:04.700Z,16.10
2023-02-16T13:59:41.547Z,14.38
2023-02-16T14:02:12.764Z,14.50
2023-02-16T14:04:41.185Z,14.40
2023-02-16T14:07:31.489Z,12.65
2023-02-16T14:09:59.235Z,13.13
2023-02-16T14:12:32.036Z,12.30
2023-02-16T14:15:20.925Z,11.73
2023-02-16T14:17:48.823Z,12.57
2023-02-16T14:20:23.116Z,13.23
2023-02-16T14:23:03.869Z,15.43
2023-02-16T14:25:35.252Z,15.40
2023-02-16T14:28:05.496Z,13.90
2023-02-16T14:30:42.670Z,12.15
2023-02-16T14:33:23.471Z,12.23
2023-02-16T14:36:00.617Z,10.90
2023-02-16T14:40:58.837Z,10.07
2023-02-16T14:43:33.892Z,10.32
2023-02-16T14:46:20.326Z,9.27
2023-02-16T14:49:24.235Z,8.43
2023-02-16T14:52:05.217Z,8.52
2023-02-16T14:54:47.710Z,9.35
2023-02-16T14:57:58.615Z,9.13
2023-02-16T15:01:04.590Z,10.43
2023-02-16T15:03:53.060Z,8.90
2023-02-16T15:06:28.697Z,9.30
2023-02-16T15:09:05.685Z,9.52
2023-02-16T15:11:56.939Z,8.95
2023-02-16T15:14:27.729Z,9.55
2023-02-16T15:16:57.999Z,9.60
2023-02-16T15:19:33.204Z,8.38
2023-02-16T15:22:24.736Z,9.27
2023-02-16T15:25:02.637Z,8.57
2023-02-16T15:27:33.220Z,9.18
2023-02-16T15:30:13.772Z,8.75
2023-02-16T15:32:41.949Z,9.00
2023-02-16T15:35:22.410Z,9.80
2023-02-16T15:38:02.940Z,9.68
2023-02-16T15:40:33.394Z,9.00
2023-02-16T15:43:27.037Z,8.95
2023-02-16T15:45:55.149Z,9.25
2023-02-16T15:48:28.251Z,9.00
2023-02-16T15:51:13.429Z,9.23
2023-02-16T15:53:50.243Z,8.40
2023-02-16T15:56:25.618Z,7.93
2023-02-16T15:58:54.005Z,8.60
2023-02-16T16:01:33.310Z,8.20
2023-02-16T16:04:38.844Z,9.00
2023-02-16T16:07:12.524Z,9.45
2023-02-16T16:09:42.658Z,10.60
2023-02-16T16:12:14.627Z,11.02
2023-02-16T16:15:04.638Z,10.82
2023-02-16T16:17:40.014Z,11.82
2023-02-16T16:20:37.424Z,10.88
2023-02-16T16:23:17.316Z,10.75
2023-02-16T16:25:48.874Z,10.27
2023-02-16T16:28:28.114Z,10.43
2023-02-16T16:31:14.665Z,11.60
2023-02-16T16:33:54.681Z,10.80
2023-02-16T16:36:30.609Z,11.25
2023-02-16T16:39:25.773Z,10.23
2023-02-16T16:41:56.691Z,10.95
2023-02-16T16:44:43.241Z,10.70
2023-02-16T16:47:49.954Z,11.38
2023-02-16T16:50:18.513Z,10.70
2023-02-16T16:52:51.231Z,10.57
2023-02-16T16:55:23.832Z,10.13
2023-02-16T16:57:57.830Z,9.75
2023-02-16T17:00:31.411Z,9.32
2023-02-16T17:03:00.695Z,10.75
2023-02-16T17:05:28.996Z,10.30
2023-02-16T17:07:56.860Z,10.05
2023-02-16T17:10:26.419Z,9.73
2023-02-16T17:12:58.262Z,10.13
2023-02-16T17:15:46.876Z,9.10
2023-02-16T17:18:17.027Z,10.52
2023-02-16T17:20:50.224Z,10.85
2023-02-16T17:23:21.027Z,11.07
2023-02-16T17:25:49.629Z,10.27
2023-02-16T17:28:20.868Z,9.48
2023-02-16T17:30:48.730Z,8.45
2023-02-16T17:33:16.711Z,9.80
2023-02-16T17:35:47.088Z,9.32
2023-02-16T17:38:20.360Z,9.35
2023-02-16T17:40:50.387Z,9.50
2023-02-16T17:43:20.282Z,9.05
2023-02-16T17:45:49.764Z,8.95
2023-02-16T17:48:28.389Z,9.18
2023-02-16T17:51:00.112Z,9.32
2023-02-16T17:53:30.280Z,8.63
2023-02-16T17:55:58.924Z,8.20
2023-02-16T17:58:26.909Z,7.63
2023-02-16T18:00:55.889Z,8.35
2023-02-16T18:03:25.537Z,9.05
2023-02-16T18:05:54.029Z,10.13
2023-02-16T18:08:23.451Z,12.82
2023-02-16T18:10:54.167Z,18.40
2023-02-16T18:13:22.033Z,17.52
2023-02-16T18:15:53.490Z,15.68
2023-02-16T18:18:21.892Z,14.15
2023-02-16T18:20:49.784Z,13.93
2023-02-16T18:23:17.713Z,14.00
2023-02-16T18:25:45.965Z,12.95
2023-02-16T18:28:18.582Z,12.70
2023-02-16T18:30:49.437Z,12.65
2023-02-16T18:33:18.891Z,12.25
2023-02-16T18:35:47.244Z,12.90
2023-02-16T18:38:15.275Z,13.57
2023-02-16T18:40:44.918Z,13.73
2023-02-16T18:43:13.290Z,14.23
2023-02-16T18:45:41.751Z,13.77
2023-02-16T18:48:09.942Z,14.60
2023-02-16T18:50:37.929Z,30.58
2023-02-16T18:53:06.100Z,26.08
2023-02-16T18:55:34.393Z,23.35
2023-02-16T18:58:07.622Z,22.65
2023-02-16T19:00:37.272Z,23.35
2023-02-16T19:03:05.764Z,27.98
2023-02-16T19:05:33.909Z,25.13
2023-02-16T19:08:01.820Z,21.83
2023-02-16T19:10:30.312Z,20.10
2023-02-16T19:12:58.772Z,22.52
2023-02-16T19:15:27.524Z,23.95
2023-02-16T19:17:55.688Z,24.05
2023-02-16T19:20:23.643Z,22.60
2023-02-16T19:22:52.217Z,21.65
2023-02-16T19:25:21.491Z,22.10
2023-02-16T19:27:49.512Z,18.65
2023-02-16T19:30:17.429Z,20.58
2023-02-16T19:32:46.009Z,25.20
2023-02-16T19:35:13.824Z,24.67
2023-02-16T19:37:42.111Z,23.45
2023-02-16T19:40:11.019Z,19.77
2023-02-16T19:42:39.063Z,18.48
2023-02-16T19:45:08.845Z,16.08
2023-02-16T19:47:36.618Z,15.65
2023-02-16T19:50:05.341Z,16.10
2023-02-16T19:52:34.134Z,16.63
2023-02-16T19:55:01.957Z,15.63
2023-02-16T19:57:29.838Z,14.90
2023-02-16T20:00:00.657Z,15.88
2023-02-16T20:02:31.293Z,14.43
2023-02-16T20:04:59.270Z,17.02
2023-02-16T20:07:28.855Z,14.82
2023-02-16T20:09:56.618Z,15.77
2023-02-16T20:12:29.191Z,16.33
2023-02-16T20:14:58.521Z,16.85
2023-02-16T20:17:26.540Z,16.80
2023-02-16T20:19:54.394Z,15.77
2023-02-16T20:22:22.275Z,16.27
2023-02-16T20:24:51.472Z,16.20
2023-02-16T20:27:19.278Z,14.15
2023-02-16T20:29:50.078Z,13.32
2023-02-16T20:32:18.214Z,13.05
2023-02-16T20:34:46.328Z,13.30
2023-02-16T20:37:14.262Z,16.05
2023-02-16T20:39:44.110Z,15.75
2023-02-16T20:42:12.112Z,18.90
2023-02-16T20:44:40.145Z,34.75
2023-02-16T20:47:10.289Z,33.50
2023-02-16T20:49:38.405Z,29.17
2023-02-16T20:52:06.329Z,26.00
2023-02-16T20:54:34.158Z,23.83
2023-02-16T20:57:02.368Z,23.00
2023-02-16T20:59:31.369Z,21.50
2023-02-16T21:01:59.538Z,20.92
2023-02-16T21:04:28.287Z,19.05
2023-02-16T21:06:56.266Z,21.40
2023-02-16T21:09:24.328Z,22.48
2023-02-16T21:11:54.686Z,21.67
2023-02-16T21:14:22.686Z,19.17
2023-02-16T21:16:50.751Z,19.15
2023-02-16T21:19:23.338Z,16.15
2023-02-16T21:21:52.632Z,12.77
2023-02-16T21:24:23.505Z,13.02
2023-02-16T21:26:51.610Z,11.93
2023-02-16T21:29:23.874Z,10.52
2023-02-16T21:31:52.139Z,11.15
2023-02-16T21:34:20.693Z,9.38
2023-02-16T21:36:50.217Z,9.52
2023-02-16T21:39:19.142Z,8.88
2023-02-16T21:41:49.529Z,9.07
2023-02-16T21:44:19.604Z,9.82
2023-02-16T21:46:52.047Z,9.43
2023-02-16T21:49:21.691Z,10.38
2023-02-16T21:51:50.489Z,8.35
2023-02-16T21:54:42.560Z,9.07
2023-02-16T21:57:10.857Z,9.23
2023-02-16T21:59:42.190Z,9.18
2023-02-16T22:02:13.495Z,9.50
2023-02-16T22:04:43.464Z,8.82
2023-02-16T22:07:19.118Z,9.38
2023-02-16T22:09:47.373Z,9.13
2023-02-16T22:12:15.624Z,8.63
2023-02-16T22:14:46.290Z,9.45
2023-02-16T22:17:14.255Z,9.07
2023-02-16T22:19:42.668Z,9.77
2023-02-16T22:22:13.776Z,9.35
2023-02-16T22:24:42.162Z,9.57
2023-02-16T22:27:15.041Z,10.27
2023-02-16T22:29:46.971Z,10.02
2023-02-16T22:32:18.746Z,9.23
2023-02-16T22:34:47.786Z,9.85
2023-02-16T22:37:23.256Z,9.05
2023-02-16T22:39:52.290Z,9.65
2023-02-16T22:42:20.362Z,9.55
2023-02-16T22:44:50.078Z,8.75
2023-02-16T22:47:21.301Z,9.15
2023-02-16T22:49:49.697Z,9.25
2023-02-16T22:52:17.726Z,9.23
2023-02-16T22:54:53.933Z,10.13
2023-02-16T22:57:25.163Z,9.90
2023-02-16T22:59:57.660Z,10.77
2023-02-16T23:02:33.419Z,9.90
2023-02-16T23:05:01.604Z,10.32
2023-02-16T23:07:33.748Z,9.85
2023-02-16T23:10:02.334Z,10.30
2023-02-16T23:12:30.496Z,11.98
2023-02-16T23:14:59.890Z,11.90
2023-02-16T23:17:28.126Z,12.98
2023-02-16T23:19:58.752Z,12.55
2023-02-16T23:22:31.682Z,13.57
2023-02-16T23:25:25.572Z,12.35
2023-02-16T23:27:54.274Z,13.50
2023-02-16T23:30:22.865Z,13.73
2023-02-16T23:33:00.141Z,14.02
2023-02-16T23:35:33.807Z,14.23
2023-02-16T23:38:04.178Z,14.20
2023-02-16T23:40:34.837Z,15.73
2023-02-16T23:43:04.798Z,17.33
2023-02-16T23:45:32.637Z,16.27
2023-02-16T23:48:01.084Z,15.82
2023-02-16T23:50:30.701Z,16.63
2023-02-16T23:53:04.859Z,20.73
2023-02-16T23:55:37.665Z,31.73
2023-02-16T23:58:09.571Z,29.33
